Time;durP1;ratioP1;P1;durP2;ratioP2;P2;SDS_P1;SDS_P2;PMS_P1;PMS_P2;Temp;Humidity;BMP_temperature;BMP_pressure;BME280_temperature;BME280_humidity;BME280_pressure;Samples;Min_cycle;Max_cycle;Signal;HPM_P1;HPM_P2
2022/03/10 00:00:53;;;;;;;;;;;18.10;49.80;;;;;;5045929;28;20445;-64
2022/03/10 00:03:19;;;;;;;;;;;18.10;49.80;;;;;;5045527;28;19913;-64
2022/03/10 00:05:44;;;;;;;;;;;18.10;49.80;;;;;;5045549;28;20347;-64
2022/03/10 00:08:10;;;;;;;;;;;18.10;49.70;;;;;;5046374;28;20342;-64
2022/03/10 00:10:35;;;;;;;;;;;18.10;49.70;;;;;;5045161;28;20468;-63
2022/03/10 00:13:01;;;;;;;;;;;18.00;49.70;;;;;;5046066;28;19919;-63
2022/03/10 00:15:26;;;;;;;;;;;18.00;49.80;;;;;;5045912;28;19917;-64
2022/03/10 00:17:52;;;;;;;;;;;18.00;49.70;;;;;;5045734;28;19913;-65
2022/03/10 00:20:17;;;;;;;;;;;18.00;49.70;;;;;;5045142;28;19917;-64
2022/03/10 00:22:47;;;;;;;;;;;17.90;49.80;;;;;;5045339;28;19921;-64
2022/03/10 00:25:13;;;;;;;;;;;17.90;49.70;;;;;;5045128;28;20438;-62
2022/03/10 00:27:38;;;;;;;;;;;17.90;49.80;;;;;;5046286;28;19930;-64
2022/03/10 00:30:04;;;;;;;;;;;17.90;49.90;;;;;;5045610;28;19913;-64
2022/03/10 00:32:29;;;;;;;;;;;17.90;49.90;;;;;;5045326;28;20214;-64
2022/03/10 00:34:55;;;;;;;;;;;17.90;49.70;;;;;;5046402;28;19913;-63
2022/03/10 00:37:20;;;;;;;;;;;17.90;49.80;;;;;;5045441;28;19935;-65
2022/03/10 00:39:46;;;;;;;;;;;17.80;49.80;;;;;;5045577;28;19920;-64
2022/03/10 00:42:11;;;;;;;;;;;17.80;49.80;;;;;;5045963;28;19956;-64
2022/03/10 00:44:37;;;;;;;;;;;17.70;49.90;;;;;;5046051;28;20575;-64
2022/03/10 00:47:02;;;;;;;;;;;17.80;49.90;;;;;;5045162;28;19920;-64
2022/03/10 00:49:28;;;;;;;;;;;17.80;50.00;;;;;;5045100;28;19913;-64
2022/03/10 00:51:53;;;;;;;;;;;17.70;50.00;;;;;;5045077;28;19913;-64
2022/03/10 00:54:18;;;;;;;;;;;17.60;50.00;;;;;;5044663;28;19920;-63
2022/03/10 00:56:44;;;;;;;;;;;17.60;50.00;;;;;;5044450;28;19913;-60
2022/03/10 00:59:09;;;;;;;;;;;17.60;50.10;;;;;;5045696;28;19913;-64
2022/03/10 01:01:35;;;;;;;;;;;17.60;50.10;;;;;;5044116;28;19920;-64
2022/03/10 01:04:00;;;;;;;;;;;17.60;50.10;;;;;;5043968;28;20659;-64
2022/03/10 01:06:26;;;;;;;;;;;17.50;50.20;;;;;;5044171;28;19973;-63
2022/03/10 01:08:51;;;;;;;;;;;17.60;50.10;;;;;;5044266;28;19921;-63
2022/03/10 01:11:17;;;;;;;;;;;17.50;50.20;;;;;;5043272;28;19913;-64
2022/03/10 01:13:42;;;;;;;;;;;17.60;50.30;;;;;;5045028;28;20299;-63
2022/03/10 01:16:07;;;;;;;;;;;17.60;50.10;;;;;;5044151;28;19919;-64
2022/03/10 01:18:33;;;;;;;;;;;17.60;50.10;;;;;;5044305;28;19921;-63
2022/03/10 01:20:58;;;;;;;;;;;17.60;50.30;;;;;;5044026;28;20636;-64
2022/03/10 01:23:24;;;;;;;;;;;17.60;50.10;;;;;;5043735;28;19913;-65
2022/03/10 01:25:49;;;;;;;;;;;17.50;50.10;;;;;;5043921;28;19920;-64
2022/03/10 01:28:15;;;;;;;;;;;17.60;50.10;;;;;;5044062;28;20402;-63
2022/03/10 01:30:42;;;;;;;;;;;17.60;50.00;;;;;;5043818;28;19913;-64
2022/03/10 01:33:08;;;;;;;;;;;17.60;50.20;;;;;;5043416;28;19913;-64
2022/03/10 01:35:34;;;;;;;;;;;17.50;50.00;;;;;;5043245;28;19932;-65
2022/03/10 01:37:59;;;;;;;;;;;17.60;50.10;;;;;;5043944;28;20380;-63
2022/03/10 01:40:25;;;;;;;;;;;17.50;50.00;;;;;;5043266;28;19913;-64
2022/03/10 01:42:50;;;;;;;;;;;17.50;50.00;;;;;;5043195;28;19921;-63
2022/03/10 01:45:16;;;;;;;;;;;17.50;50.00;;;;;;5043612;28;19912;-64
2022/03/10 01:47:41;;;;;;;;;;;17.50;50.10;;;;;;5043983;28;20383;-64
2022/03/10 01:50:07;;;;;;;;;;;17.50;50.20;;;;;;5042972;28;20475;-64
2022/03/10 01:52:32;;;;;;;;;;;17.40;50.10;;;;;;5042996;28;20411;-64
2022/03/10 01:54:58;;;;;;;;;;;17.40;50.20;;;;;;5037878;28;19913;-64
2022/03/10 01:57:24;;;;;;;;;;;17.40;50.20;;;;;;5043585;28;19920;-64
2022/03/10 01:59:50;;;;;;;;;;;17.40;50.40;;;;;;5043206;28;19966;-64
2022/03/10 02:02:16;;;;;;;;;;;17.40;50.20;;;;;;5043237;28;19924;-64
2022/03/10 02:04:41;;;;;;;;;;;17.40;50.20;;;;;;5043938;28;19916;-64
2022/03/10 02:07:08;;;;;;;;;;;17.40;50.30;;;;;;5043971;28;19920;-63
2022/03/10 02:12:18;;;;;;;;;;;17.50;50.10;;;;;;5043419;28;19920;-64
2022/03/10 02:17:27;;;;;;;;;;;17.50;50.10;;;;;;5043499;28;19978;-64
2022/03/10 02:19:53;;;;;;;;;;;17.40;50.60;;;;;;5042770;28;20073;-63
2022/03/10 02:22:20;;;;;;;;;;;17.20;50.20;;;;;;5043071;28;19921;-64
2022/03/10 02:24:45;;;;;;;;;;;17.20;50.30;;;;;;5043219;28;19920;-64
2022/03/10 02:27:31;;;;;;;;;;;17.20;50.40;;;;;;5042871;28;19916;-64
2022/03/10 02:29:58;;;;;;;;;;;17.00;50.60;;;;;;5042434;28;19916;-64
2022/03/10 02:32:24;;;;;;;;;;;16.90;50.80;;;;;;5042791;28;19917;-63
2022/03/10 02:34:49;;;;;;;;;;;16.70;51.10;;;;;;5042749;28;20702;-63
2022/03/10 02:37:15;;;;;;;;;;;16.80;50.90;;;;;;5042235;28;19978;-63
2022/03/10 02:39:40;;;;;;;;;;;16.70;50.80;;;;;;5043402;28;19917;-64
2022/03/10 02:42:06;;;;;;;;;;;16.70;50.90;;;;;;5042466;28;19923;-64
2022/03/10 02:44:31;;;;;;;;;;;16.60;50.90;;;;;;5042312;28;19921;-63
2022/03/10 02:46:57;;;;;;;;;;;16.70;51.00;;;;;;5042579;28;20373;-64
2022/03/10 02:49:22;;;;;;;;;;;16.70;50.80;;;;;;5041666;28;19913;-64
2022/03/10 02:51:48;;;;;;;;;;;16.70;50.70;;;;;;5033119;28;20035;-64
2022/03/10 02:54:13;;;;;;;;;;;16.70;50.90;;;;;;5035551;28;19982;-64
2022/03/10 02:56:39;;;;;;;;;;;16.70;50.80;;;;;;5042935;28;20582;-64
2022/03/10 02:59:04;;;;;;;;;;;16.70;50.60;;;;;;5024266;28;20541;-64
2022/03/10 03:01:30;;;;;;;;;;;16.60;50.80;;;;;;5044716;28;19917;-64
2022/03/10 03:03:55;;;;;;;;;;;16.60;50.80;;;;;;5046369;28;20000;-64
2022/03/10 03:06:21;;;;;;;;;;;16.60;50.90;;;;;;5046701;28;20414;-64
2022/03/10 03:08:46;;;;;;;;;;;16.50;50.90;;;;;;5045705;28;20042;-64
2022/03/10 03:11:12;;;;;;;;;;;16.50;51.00;;;;;;5047060;28;19917;-64
2022/03/10 03:13:37;;;;;;;;;;;16.50;51.00;;;;;;5046677;28;20322;-64
2022/03/10 03:16:03;;;;;;;;;;;16.50;51.00;;;;;;5046719;28;19913;-64
2022/03/10 03:18:28;;;;;;;;;;;16.50;51.10;;;;;;5046215;28;19920;-64
2022/03/10 03:20:54;;;;;;;;;;;16.50;51.10;;;;;;5046341;28;19963;-64
2022/03/10 03:23:19;;;;;;;;;;;16.60;51.10;;;;;;5045873;28;19955;-64
2022/03/10 03:25:44;;;;;;;;;;;16.70;51.30;;;;;;5045913;28;19913;-64
2022/03/10 03:28:10;;;;;;;;;;;16.80;51.00;;;;;;5046835;28;20548;-64
2022/03/10 03:30:35;;;;;;;;;;;17.00;50.50;;;;;;5045694;28;19912;-64
2022/03/10 03:33:01;;;;;;;;;;;17.00;50.50;;;;;;5045033;28;20000;-61
2022/03/10 03:35:26;;;;;;;;;;;17.10;50.50;;;;;;5046538;28;19924;-65
2022/03/10 03:37:52;;;;;;;;;;;17.10;50.60;;;;;;5045484;28;20391;-65
2022/03/10 03:40:17;;;;;;;;;;;17.20;50.60;;;;;;5046265;28;19913;-64
2022/03/10 03:42:43;;;;;;;;;;;17.30;50.50;;;;;;5045602;28;20450;-64
2022/03/10 03:45:09;;;;;;;;;;;17.30;50.30;;;;;;5045428;28;19939;-64
2022/03/10 03:47:34;;;;;;;;;;;17.30;50.10;;;;;;5045479;28;19913;-64
2022/03/10 03:49:59;;;;;;;;;;;17.50;49.90;;;;;;5037087;28;19958;-64
2022/03/10 03:52:25;;;;;;;;;;;17.60;49.50;;;;;;5045233;28;19913;-64
2022/03/10 03:54:50;;;;;;;;;;;17.70;49.30;;;;;;5045592;28;20310;-59
2022/03/10 03:57:16;;;;;;;;;;;17.80;49.10;;;;;;5046011;28;19975;-64
2022/03/10 03:59:41;;;;;;;;;;;17.80;48.90;;;;;;5046202;28;19923;-63
2022/03/10 04:02:08;;;;;;;;;;;18.00;48.70;;;;;;5045570;28;20613;-64
2022/03/10 04:04:33;;;;;;;;;;;18.00;48.60;;;;;;5045284;28;19913;-65
2022/03/10 04:06:59;;;;;;;;;;;18.00;48.50;;;;;;5044468;28;20538;-63
2022/03/10 04:09:25;;;;;;;;;;;18.10;48.30;;;;;;5045417;28;19943;-64
2022/03/10 04:11:50;;;;;;;;;;;18.10;48.10;;;;;;5044764;28;19998;-64
2022/03/10 04:14:17;;;;;;;;;;;18.20;48.10;;;;;;5045373;28;20642;-64
2022/03/10 04:16:42;;;;;;;;;;;18.10;48.00;;;;;;5045017;28;19924;-64
2022/03/10 04:19:08;;;;;;;;;;;18.20;48.10;;;;;;5045557;28;19920;-63
2022/03/10 04:21:33;;;;;;;;;;;18.20;48.10;;;;;;5058057;28;19917;-64
2022/03/10 04:23:59;;;;;;;;;;;18.20;48.10;;;;;;5045550;28;19944;-64
2022/03/10 04:26:25;;;;;;;;;;;18.10;48.10;;;;;;5045613;28;19917;-64
2022/03/10 04:28:50;;;;;;;;;;;18.10;48.20;;;;;;5045136;28;20350;-64
2022/03/10 04:31:16;;;;;;;;;;;18.10;48.10;;;;;;5044569;28;20070;-64
2022/03/10 04:33:41;;;;;;;;;;;18.10;48.30;;;;;;5043930;28;19923;-64
2022/03/10 04:36:07;;;;;;;;;;;18.10;48.30;;;;;;5040500;28;19952;-63
2022/03/10 04:38:32;;;;;;;;;;;18.00;48.40;;;;;;5043302;28;19913;-63
2022/03/10 04:40:57;;;;;;;;;;;18.00;48.50;;;;;;5043847;28;19920;-64
2022/03/10 04:43:23;;;;;;;;;;;17.90;48.60;;;;;;5048037;28;20006;-64
2022/03/10 04:45:48;;;;;;;;;;;17.90;48.60;;;;;;5027944;28;20536;-64
2022/03/10 04:48:14;;;;;;;;;;;17.90;48.80;;;;;;5041772;28;19917;-63
2022/03/10 04:50:39;;;;;;;;;;;17.80;48.90;;;;;;5045650;28;19920;-64
2022/03/10 04:53:05;;;;;;;;;;;17.80;49.00;;;;;;5041366;28;19924;-64
2022/03/10 04:55:30;;;;;;;;;;;17.60;49.10;;;;;;5044700;28;19913;-64
2022/03/10 04:57:56;;;;;;;;;;;17.70;49.20;;;;;;5041808;28;20295;-63
2022/03/10 05:00:22;;;;;;;;;;;17.70;49.20;;;;;;5044426;28;20429;-63
2022/03/10 05:02:47;;;;;;;;;;;17.60;49.20;;;;;;5045218;28;19968;-61
2022/03/10 05:05:13;;;;;;;;;;;17.60;49.30;;;;;;5045740;28;19920;-63
2022/03/10 05:07:39;;;;;;;;;;;17.60;49.40;;;;;;5045294;28;19913;-64
2022/03/10 05:10:04;;;;;;;;;;;17.50;49.40;;;;;;5044617;28;20391;-64
2022/03/10 05:12:30;;;;;;;;;;;17.50;49.40;;;;;;5044316;28;20086;-63
2022/03/10 05:14:55;;;;;;;;;;;17.50;49.50;;;;;;5044431;28;19921;-63
2022/03/10 05:17:23;;;;;;;;;;;17.50;49.60;;;;;;5059921;28;20368;-63
2022/03/10 05:19:49;;;;;;;;;;;17.50;49.50;;;;;;5043947;28;19963;-64
2022/03/10 05:22:15;;;;;;;;;;;17.40;49.60;;;;;;5044218;28;19916;-64
2022/03/10 05:24:40;;;;;;;;;;;17.50;49.60;;;;;;5044590;28;19919;-64
2022/03/10 05:27:06;;;;;;;;;;;17.50;49.50;;;;;;5044957;28;19923;-62
2022/03/10 05:29:31;;;;;;;;;;;17.40;49.60;;;;;;5045797;28;20372;-64
2022/03/10 05:31:57;;;;;;;;;;;17.40;49.90;;;;;;5045227;28;19919;-59
2022/03/10 05:34:22;;;;;;;;;;;17.40;49.90;;;;;;5043853;28;19921;-63
2022/03/10 05:36:48;;;;;;;;;;;17.40;50.10;;;;;;5043361;28;20540;-63
2022/03/10 05:39:14;;;;;;;;;;;17.40;49.90;;;;;;5043087;28;19947;-59
2022/03/10 05:41:40;;;;;;;;;;;17.40;50.00;;;;;;5045763;28;20377;-65
2022/03/10 05:44:05;;;;;;;;;;;17.40;50.20;;;;;;5043922;28;19927;-64
2022/03/10 05:46:31;;;;;;;;;;;17.40;50.40;;;;;;5043806;28;20276;-63
2022/03/10 05:48:56;;;;;;;;;;;17.30;50.50;;;;;;5043018;28;19917;-65
2022/03/10 05:51:22;;;;;;;;;;;17.20;50.60;;;;;;5043734;28;20371;-62
2022/03/10 05:53:48;;;;;;;;;;;17.20;50.70;;;;;;5043201;28;19913;-62
2022/03/10 05:56:13;;;;;;;;;;;17.20;50.70;;;;;;5043660;28;19912;-64
2022/03/10 05:58:39;;;;;;;;;;;17.20;50.70;;;;;;5043341;28;19956;-64
2022/03/10 06:01:04;;;;;;;;;;;17.10;50.70;;;;;;5044040;28;19913;-64
2022/03/10 06:03:29;;;;;;;;;;;17.10;51.00;;;;;;5043516;28;20319;-64
2022/03/10 06:05:55;;;;;;;;;;;17.10;51.20;;;;;;5042829;28;19993;-65
2022/03/10 06:08:20;;;;;;;;;;;17.10;51.30;;;;;;5043117;28;19948;-65
2022/03/10 06:10:46;;;;;;;;;;;17.10;51.30;;;;;;5042560;28;19921;-59
2022/03/10 06:13:11;;;;;;;;;;;17.10;51.20;;;;;;5042974;28;20373;-64
2022/03/10 06:15:37;;;;;;;;;;;17.10;51.10;;;;;;5043267;28;19927;-63
2022/03/10 06:18:02;;;;;;;;;;;17.10;51.10;;;;;;5043748;28;19956;-62
2022/03/10 06:20:30;;;;;;;;;;;17.10;51.10;;;;;;5029936;28;19917;-60
2022/03/10 06:22:55;;;;;;;;;;;17.10;51.00;;;;;;5043511;28;19917;-63
2022/03/10 06:25:21;;;;;;;;;;;17.00;51.00;;;;;;5042753;28;19979;-63
2022/03/10 06:27:46;;;;;;;;;;;17.00;51.00;;;;;;5043260;28;19917;-56
2022/03/10 06:30:12;;;;;;;;;;;17.10;51.00;;;;;;5043124;28;19956;-63
2022/03/10 06:32:37;;;;;;;;;;;17.10;51.10;;;;;;5042601;28;19966;-65
2022/03/10 06:35:03;;;;;;;;;;;17.10;51.20;;;;;;5042358;28;19948;-63
2022/03/10 06:37:29;;;;;;;;;;;17.10;51.30;;;;;;5042525;28;19912;-64
2022/03/10 06:39:55;;;;;;;;;;;17.10;51.50;;;;;;5041210;28;19943;-65
2022/03/10 06:42:20;;;;;;;;;;;17.00;51.40;;;;;;5043392;28;20551;-60
2022/03/10 06:44:45;;;;;;;;;;;17.10;51.60;;;;;;5043733;28;19924;-64
2022/03/10 06:47:12;;;;;;;;;;;17.20;51.70;;;;;;5042502;28;20452;-60
2022/03/10 06:49:37;;;;;;;;;;;17.20;51.60;;;;;;5041662;28;19924;-64
2022/03/10 06:52:03;;;;;;;;;;;17.30;51.50;;;;;;5041782;28;19913;-66
2022/03/10 06:54:29;;;;;;;;;;;17.30;51.20;;;;;;5042402;28;19952;-65
2022/03/10 06:56:54;;;;;;;;;;;17.40;51.30;;;;;;5042972;28;19913;-61
2022/03/10 06:59:19;;;;;;;;;;;17.40;51.60;;;;;;5042502;28;20469;-65
2022/03/10 07:01:45;;;;;;;;;;;17.30;51.10;;;;;;5024780;28;19923;-64
2022/03/10 07:04:11;;;;;;;;;;;17.30;51.10;;;;;;5043126;28;19917;-64
2022/03/10 07:06:36;;;;;;;;;;;17.20;51.00;;;;;;5058224;28;19913;-65
2022/03/10 07:09:01;;;;;;;;;;;17.10;51.30;;;;;;5042944;28;19913;-66
2022/03/10 07:11:27;;;;;;;;;;;17.10;51.40;;;;;;5042805;28;20244;-66
2022/03/10 07:13:52;;;;;;;;;;;17.10;51.40;;;;;;5042170;28;20408;-66
2022/03/10 07:16:18;;;;;;;;;;;17.00;51.40;;;;;;5042886;28;19919;-66
2022/03/10 07:18:50;;;;;;;;;;;17.00;51.40;;;;;;5042069;28;19917;-63
2022/03/10 07:21:18;;;;;;;;;;;17.00;51.50;;;;;;5042086;28;19943;-63
2022/03/10 07:23:44;;;;;;;;;;;17.00;51.40;;;;;;5041758;28;20001;-61
2022/03/10 07:26:10;;;;;;;;;;;17.00;51.20;;;;;;5042735;28;20007;-63
2022/03/10 07:28:35;;;;;;;;;;;17.20;50.90;;;;;;5042160;28;19913;-61
2022/03/10 07:31:01;;;;;;;;;;;17.20;50.50;;;;;;5043160;28;19966;-63
2022/03/10 07:33:26;;;;;;;;;;;17.30;50.30;;;;;;5042242;28;19966;-63
2022/03/10 07:35:52;;;;;;;;;;;17.30;50.00;;;;;;5042337;28;19921;-64
2022/03/10 07:38:17;;;;;;;;;;;17.40;50.20;;;;;;5042299;28;20563;-64
2022/03/10 07:40:43;;;;;;;;;;;17.40;50.40;;;;;;5041990;28;19986;-64
2022/03/10 07:43:08;;;;;;;;;;;17.50;50.60;;;;;;5041836;28;19927;-64
2022/03/10 07:45:34;;;;;;;;;;;17.60;50.70;;;;;;5042875;28;20338;-65
2022/03/10 07:47:59;;;;;;;;;;;17.60;50.70;;;;;;5044837;28;20000;-66
2022/03/10 07:50:24;;;;;;;;;;;17.70;50.70;;;;;;5046169;28;19944;-66
2022/03/10 07:52:50;;;;;;;;;;;17.60;50.80;;;;;;5046111;28;20339;-64
2022/03/10 07:55:15;;;;;;;;;;;17.70;51.10;;;;;;5046976;28;19991;-66
2022/03/10 07:57:41;;;;;;;;;;;17.80;50.90;;;;;;5046534;28;19917;-65
2022/03/10 08:00:07;;;;;;;;;;;17.80;51.00;;;;;;5045737;28;19921;-65
2022/03/10 08:02:32;;;;;;;;;;;17.90;50.90;;;;;;5046149;28;19921;-65
2022/03/10 08:04:58;;;;;;;;;;;17.90;51.00;;;;;;5045681;28;19913;-64
2022/03/10 08:07:23;;;;;;;;;;;18.00;51.10;;;;;;5045892;28;20367;-65
2022/03/10 08:09:49;;;;;;;;;;;18.00;51.20;;;;;;5045451;28;19916;-64
2022/03/10 08:12:14;;;;;;;;;;;18.00;51.40;;;;;;5050815;28;19955;-65
2022/03/10 08:14:40;;;;;;;;;;;18.10;51.60;;;;;;5032445;28;19928;-64
2022/03/10 08:17:05;;;;;;;;;;;18.00;51.80;;;;;;5028108;28;20368;-64
2022/03/10 08:19:31;;;;;;;;;;;18.10;51.90;;;;;;5045630;28;19913;-64
2022/03/10 08:21:56;;;;;;;;;;;18.20;51.80;;;;;;5045686;28;19932;-63
2022/03/10 08:24:22;;;;;;;;;;;18.20;51.70;;;;;;5044734;28;19987;-60
2022/03/10 08:26:47;;;;;;;;;;;18.30;51.80;;;;;;5045250;28;20500;-63
2022/03/10 08:29:13;;;;;;;;;;;18.30;51.70;;;;;;5044160;28;19919;-64
2022/03/10 08:31:38;;;;;;;;;;;18.40;51.60;;;;;;5044482;28;20021;-64
2022/03/10 08:34:04;;;;;;;;;;;18.40;51.50;;;;;;5044560;28;19913;-63
2022/03/10 08:36:30;;;;;;;;;;;18.40;51.40;;;;;;5044636;28;20017;-62
2022/03/10 08:38:56;;;;;;;;;;;18.40;51.20;;;;;;5044700;28;19913;-63
2022/03/10 08:41:21;;;;;;;;;;;18.50;51.20;;;;;;5044932;28;19920;-63
2022/03/10 08:43:46;;;;;;;;;;;18.50;51.10;;;;;;5044533;28;19925;-64
2022/03/10 08:46:12;;;;;;;;;;;18.50;50.90;;;;;;5044500;28;20406;-64
2022/03/10 08:48:39;;;;;;;;;;;18.50;50.90;;;;;;5044064;28;20018;-65
2022/03/10 08:51:04;;;;;;;;;;;18.50;50.90;;;;;;5044855;28;19996;-64
2022/03/10 08:53:30;;;;;;;;;;;18.50;50.80;;;;;;5044183;28;19912;-64
2022/03/10 08:55:55;;;;;;;;;;;18.50;50.70;;;;;;5044301;28;20532;-64
2022/03/10 08:58:21;;;;;;;;;;;18.60;50.60;;;;;;5043418;28;20394;-64
2022/03/10 09:00:46;;;;;;;;;;;18.60;50.40;;;;;;5044480;28;19917;-64
2022/03/10 09:03:12;;;;;;;;;;;18.60;50.50;;;;;;5044304;28;19923;-63
2022/03/10 09:05:39;;;;;;;;;;;18.70;50.50;;;;;;5044117;28;20267;-65
2022/03/10 09:08:05;;;;;;;;;;;18.70;50.50;;;;;;5044886;28;20050;-64
2022/03/10 09:10:30;;;;;;;;;;;18.80;50.40;;;;;;5043544;28;19921;-64
2022/03/10 09:12:56;;;;;;;;;;;18.80;50.30;;;;;;5044237;28;20386;-63
2022/03/10 09:15:21;;;;;;;;;;;18.80;50.30;;;;;;5044110;28;19913;-64
2022/03/10 09:17:47;;;;;;;;;;;18.80;50.30;;;;;;5044511;28;20450;-57
2022/03/10 09:20:13;;;;;;;;;;;18.80;50.10;;;;;;5043818;28;20384;-61
2022/03/10 09:22:39;;;;;;;;;;;18.80;50.10;;;;;;5044062;28;19994;-62
2022/03/10 09:25:08;;;;;;;;;;;18.80;50.20;;;;;;5034243;28;20384;-64
2022/03/10 09:27:36;;;;;;;;;;;18.80;50.10;;;;;;5044394;28;20012;-64
2022/03/10 09:30:02;;;;;;;;;;;18.90;50.10;;;;;;5043682;28;19917;-60
2022/03/10 09:32:34;;;;;;;;;;;18.90;50.00;;;;;;5044114;28;19943;-64
2022/03/10 09:35:00;;;;;;;;;;;18.90;50.00;;;;;;5043977;28;19920;-63
2022/03/10 09:37:26;;;;;;;;;;;18.90;49.80;;;;;;5043935;28;19921;-64
2022/03/10 09:39:52;;;;;;;;;;;18.90;49.80;;;;;;5043769;28;19943;-64
2022/03/10 09:42:17;;;;;;;;;;;18.90;49.80;;;;;;5043669;28;19983;-64
2022/03/10 09:44:43;;;;;;;;;;;18.90;49.80;;;;;;5025607;28;19920;-63
2022/03/10 09:47:08;;;;;;;;;;;18.90;49.80;;;;;;5025323;28;19962;-64
2022/03/10 09:49:34;;;;;;;;;;;18.90;49.80;;;;;;5044081;28;19987;-62
2022/03/10 09:51:59;;;;;;;;;;;18.80;49.70;;;;;;5043345;28;20371;-64
2022/03/10 09:54:25;;;;;;;;;;;18.80;50.30;;;;;;5044103;28;19976;-63
2022/03/10 09:56:50;;;;;;;;;;;18.80;49.70;;;;;;5043270;28;19920;-63
2022/03/10 09:59:17;;;;;;;;;;;18.80;50.00;;;;;;5042758;28;19923;-64
2022/03/10 10:01:42;;;;;;;;;;;18.70;50.00;;;;;;5042414;28;19935;-64
2022/03/10 10:04:07;;;;;;;;;;;18.60;50.10;;;;;;5043612;28;19913;-64
2022/03/10 10:06:53;;;;;;;;;;;18.60;50.10;;;;;;5043949;28;19917;-64
2022/03/10 10:09:19;;;;;;;;;;;18.60;50.30;;;;;;5029601;28;19920;-62
2022/03/10 10:11:45;;;;;;;;;;;18.60;50.40;;;;;;5045718;28;19924;-64
2022/03/10 10:14:10;;;;;;;;;;;18.50;50.30;;;;;;5043452;28;19913;-64
2022/03/10 10:16:45;;;;;;;;;;;18.50;50.40;;;;;;5043918;28;19962;-64
2022/03/10 10:19:15;;;;;;;;;;;18.40;50.60;;;;;;5043291;28;20565;-61
2022/03/10 10:21:41;;;;;;;;;;;18.40;50.50;;;;;;5043078;28;19924;-64
2022/03/10 10:24:14;;;;;;;;;;;18.40;50.60;;;;;;5049616;28;19912;-65
2022/03/10 10:26:40;;;;;;;;;;;18.40;50.60;;;;;;5042499;28;20839;-63
2022/03/10 10:29:05;;;;;;;;;;;18.40;50.80;;;;;;5042966;28;19913;-64
2022/03/10 10:31:31;;;;;;;;;;;18.40;50.80;;;;;;5041510;28;20327;-64
2022/03/10 10:34:03;;;;;;;;;;;18.40;50.70;;;;;;5029182;28;19981;-64
2022/03/10 10:36:29;;;;;;;;;;;18.30;50.70;;;;;;5041994;28;19920;-64
2022/03/10 10:38:56;;;;;;;;;;;18.30;50.80;;;;;;5042257;28;19944;-64
2022/03/10 10:41:28;;;;;;;;;;;18.30;50.70;;;;;;5042153;28;19982;-64
2022/03/10 10:43:54;;;;;;;;;;;18.40;50.80;;;;;;5043164;28;20003;-64
2022/03/10 10:46:26;;;;;;;;;;;18.40;50.80;;;;;;5042041;28;20054;-63
2022/03/10 10:48:51;;;;;;;;;;;18.40;50.70;;;;;;5043372;22;20537;-71
2022/03/10 10:51:26;;;;;;;;;;;18.40;50.70;;;;;;5005076;28;19914;-71
2022/03/10 10:53:52;;;;;;;;;;;18.40;50.80;;;;;;5003256;28;19945;-70
2022/03/10 10:56:18;;;;;;;;;;;18.30;50.80;;;;;;5001848;28;19923;-70
2022/03/10 10:58:46;;;;;;;;;;;18.40;51.10;;;;;;5002723;28;19914;-72
2022/03/10 11:01:31;;;;;;;;;;;18.30;51.30;;;;;;5002577;28;19917;-70
2022/03/10 11:03:56;;;;;;;;;;;18.30;51.60;;;;;;5003366;28;19913;-69
2022/03/10 11:06:22;;;;;;;;;;;18.30;51.80;;;;;;5002734;28;19913;-73
2022/03/10 11:08:48;;;;;;;;;;;18.20;52.10;;;;;;5002442;28;19913;-72
2022/03/10 11:11:15;;;;;;;;;;;18.30;52.30;;;;;;5003543;28;19988;-70
2022/03/10 11:13:40;;;;;;;;;;;18.30;52.10;;;;;;5001261;28;19952;-71
2022/03/10 11:16:06;;;;;;;;;;;18.30;52.70;;;;;;5003124;28;19948;-71
2022/03/10 11:18:32;;;;;;;;;;;18.30;52.80;;;;;;5002463;28;19913;-70
2022/03/10 11:21:08;;;;;;;;;;;18.30;53.00;;;;;;5002177;28;19939;-71
2022/03/10 11:23:36;;;;;;;;;;;18.30;53.10;;;;;;5004783;28;19924;-73
2022/03/10 11:26:20;;;;;;;;;;;18.30;53.20;;;;;;5008939;28;19921;-72
2022/03/10 11:28:46;;;;;;;;;;;18.30;53.40;;;;;;5006298;28;20428;-72
2022/03/10 11:31:11;;;;;;;;;;;18.40;53.20;;;;;;5008988;28;19949;-71
2022/03/10 11:33:38;;;;;;;;;;;18.30;53.30;;;;;;5006849;28;20088;-70
2022/03/10 11:36:23;;;;;;;;;;;18.40;53.30;;;;;;5005037;28;20463;-69
2022/03/10 11:38:49;;;;;;;;;;;18.40;53.40;;;;;;5007018;28;19913;-73
2022/03/10 11:41:15;;;;;;;;;;;18.40;53.40;;;;;;5008386;28;19996;-71
2022/03/10 11:43:40;;;;;;;;;;;18.40;53.40;;;;;;5004807;28;20005;-71
2022/03/10 11:46:19;;;;;;;;;;;18.40;53.50;;;;;;5006998;28;19972;-70
2022/03/10 11:48:58;;;;;;;;;;;18.40;53.50;;;;;;5003490;28;19922;-67
2022/03/10 11:51:23;;;;;;;;;;;18.40;53.70;;;;;;5005808;28;19925;-69
2022/03/10 11:53:52;;;;;;;;;;;18.40;53.70;;;;;;5004488;28;19914;-68
2022/03/10 11:56:17;;;;;;;;;;;18.40;53.70;;;;;;5005474;28;20124;-69
2022/03/10 11:58:43;;;;;;;;;;;18.40;53.80;;;;;;5007249;28;20041;-69
2022/03/10 12:01:10;;;;;;;;;;;18.40;54.00;;;;;;5006866;28;19921;-67
2022/03/10 12:03:35;;;;;;;;;;;18.30;54.20;;;;;;5000240;28;20408;-67
2022/03/10 12:06:01;;;;;;;;;;;18.30;54.20;;;;;;5006930;28;20099;-70
2022/03/10 12:08:29;;;;;;;;;;;18.30;54.50;;;;;;5010903;28;19914;-67
2022/03/10 12:10:54;;;;;;;;;;;18.30;54.40;;;;;;5005617;28;19956;-69
2022/03/10 12:13:21;;;;;;;;;;;18.30;54.30;;;;;;5003151;28;20490;-72
2022/03/10 12:15:46;;;;;;;;;;;18.30;54.40;;;;;;5004216;28;20381;-67
2022/03/10 12:18:16;;;;;;;;;;;18.30;54.40;;;;;;5005959;28;19947;-67
2022/03/10 12:20:42;;;;;;;;;;;18.40;54.50;;;;;;5005252;28;19923;-69
2022/03/10 12:23:10;;;;;;;;;;;18.40;54.50;;;;;;5004374;28;20380;-69
2022/03/10 12:25:39;;;;;;;;;;;18.40;54.60;;;;;;5004915;28;19918;-67
2022/03/10 12:28:05;;;;;;;;;;;18.40;54.60;;;;;;5005793;28;19921;-71
2022/03/10 12:30:30;;;;;;;;;;;18.40;54.60;;;;;;5004060;28;20004;-70
2022/03/10 12:32:56;;;;;;;;;;;18.40;54.60;;;;;;5002826;28;19941;-69
2022/03/10 12:35:25;;;;;;;;;;;18.50;54.50;;;;;;5003256;28;19913;-65
2022/03/10 12:37:51;;;;;;;;;;;18.50;54.50;;;;;;5007207;28;20532;-65
2022/03/10 12:40:17;;;;;;;;;;;18.50;54.40;;;;;;5003476;28;19914;-65
2022/03/10 12:42:44;;;;;;;;;;;18.50;54.40;;;;;;5005523;28;19960;-71
2022/03/10 12:45:09;;;;;;;;;;;18.60;54.40;;;;;;5005344;28;19989;-68
2022/03/10 12:47:34;;;;;;;;;;;18.60;54.40;;;;;;5003811;28;20591;-70
2022/03/10 12:50:00;;;;;;;;;;;18.60;54.40;;;;;;5003308;28;19944;-69
2022/03/10 12:52:27;;;;;;;;;;;18.60;54.30;;;;;;5006751;28;19913;-68
2022/03/10 12:54:56;;;;;;;;;;;18.60;54.40;;;;;;5006137;28;19913;-70
2022/03/10 12:57:21;;;;;;;;;;;18.60;55.00;;;;;;5004682;28;19913;-71
2022/03/10 12:59:48;;;;;;;;;;;18.60;54.30;;;;;;5004870;28;19919;-70
2022/03/10 13:02:17;;;;;;;;;;;18.60;54.30;;;;;;5004002;28;19918;-70
2022/03/10 13:04:49;;;;;;;;;;;18.60;54.30;;;;;;5006767;28;19941;-72
2022/03/10 13:07:17;;;;;;;;;;;18.70;54.20;;;;;;5003113;28;19914;-70
2022/03/10 13:09:49;;;;;;;;;;;18.70;54.20;;;;;;5002800;28;19918;-70
2022/03/10 13:12:22;;;;;;;;;;;18.70;54.20;;;;;;5003006;28;19921;-67
2022/03/10 13:14:48;;;;;;;;;;;18.70;54.10;;;;;;5000395;28;19918;-72
2022/03/10 13:17:13;;;;;;;;;;;18.80;54.10;;;;;;5004149;28;19917;-71
2022/03/10 13:19:41;;;;;;;;;;;18.80;54.10;;;;;;5003842;28;20406;-69
2022/03/10 13:22:06;;;;;;;;;;;18.80;54.00;;;;;;5002431;28;20318;-66
2022/03/10 13:24:41;;;;;;;;;;;18.80;54.00;;;;;;5008943;28;19971;-68
2022/03/10 13:27:08;;;;;;;;;;;18.80;53.80;;;;;;5003493;28;20012;-69
2022/03/10 13:29:33;;;;;;;;;;;18.80;53.90;;;;;;4988168;28;19921;-71
2022/03/10 13:31:59;;;;;;;;;;;18.80;53.90;;;;;;5002115;28;20004;-68
2022/03/10 13:34:24;;;;;;;;;;;18.80;53.80;;;;;;5007512;28;19913;-68
2022/03/10 13:36:50;;;;;;;;;;;18.80;54.10;;;;;;5002550;28;19918;-73
2022/03/10 13:39:16;;;;;;;;;;;18.90;54.10;;;;;;5003497;28;19913;-70
2022/03/10 13:41:44;;;;;;;;;;;18.90;54.40;;;;;;4986459;28;19921;-70
2022/03/10 13:44:13;;;;;;;;;;;18.90;54.50;;;;;;5004948;28;20588;-69
2022/03/10 13:46:39;;;;;;;;;;;19.00;54.30;;;;;;5004018;28;19921;-68
2022/03/10 13:49:04;;;;;;;;;;;19.10;54.10;;;;;;5003181;28;19983;-70
2022/03/10 13:51:30;;;;;;;;;;;19.20;53.80;;;;;;5003625;28;20392;-70
2022/03/10 13:53:58;;;;;;;;;;;19.40;53.50;;;;;;5004890;28;19913;-70
2022/03/10 13:56:29;;;;;;;;;;;19.50;53.30;;;;;;5005491;28;19920;-71
2022/03/10 13:58:55;;;;;;;;;;;19.40;53.10;;;;;;5005876;28;19914;-70
2022/03/10 14:01:20;;;;;;;;;;;19.40;53.30;;;;;;5003417;28;20635;-69
2022/03/10 14:03:46;;;;;;;;;;;19.30;53.50;;;;;;5001760;28;19918;-67
2022/03/10 14:06:14;;;;;;;;;;;19.10;53.80;;;;;;5003582;28;19922;-69
2022/03/10 14:08:45;;;;;;;;;;;19.10;53.80;;;;;;5003616;28;21252;-67
2022/03/10 14:11:11;;;;;;;;;;;19.10;53.90;;;;;;5003138;28;19964;-70
2022/03/10 14:13:40;;;;;;;;;;;19.10;53.90;;;;;;5005462;28;20380;-68
2022/03/10 14:16:06;;;;;;;;;;;19.10;53.90;;;;;;5003187;28;20634;-68